Time;durP1;ratioP1;P1;durP2;ratioP2;P2;SDS_P1;SDS_P2;PMS_P1;PMS_P2;Temp;Humidity;BMP_temperature;BMP_pressure;BME280_temperature;BME280_humidity;BME280_pressure;Samples;Min_cycle;Max_cycle;Signal;HPM_P1;HPM_P2
2022/11/23 00:03:16;;;;;;;0.00;0.00;;;;;;;1.51;100.00;99865.91;10510591;28;20298;-77
2022/11/23 00:08:16;;;;;;;0.00;0.00;;;;;;;1.58;100.00;99864.44;10510583;28;20024;-77
2022/11/23 00:13:16;;;;;;;0.00;0.00;;;;;;;1.62;100.00;99857.16;10511681;28;20317;-77
2022/11/23 00:18:17;;;;;;;0.00;0.00;;;;;;;1.68;100.00;99859.28;10509760;28;20082;-77
2022/11/23 00:23:17;;;;;;;0.00;0.00;;;;;;;1.79;100.00;99859.22;10494257;28;20029;-78
2022/11/23 00:28:18;;;;;;;0.00;0.00;;;;;;;1.84;100.00;99869.34;10511752;28;20061;-77
2022/11/23 00:33:18;;;;;;;0.00;0.00;;;;;;;1.88;100.00;99865.50;10511602;28;20070;-78
2022/11/23 00:38:18;;;;;;;0.00;0.00;;;;;;;1.90;100.00;99860.97;10494252;28;20044;-78
2022/11/23 00:43:19;;;;;;;0.00;0.00;;;;;;;1.92;100.00;99856.44;10511925;28;20107;-76
2022/11/23 00:48:19;;;;;;;0.00;0.00;;;;;;;1.93;100.00;99859.88;10493343;28;20024;-76
2022/11/23 00:53:19;;;;;;;0.00;0.00;;;;;;;1.92;100.00;99858.19;10512985;28;20024;-78
2022/11/23 00:58:23;;;;;;;0.00;0.00;;;;;;;1.96;100.00;99863.09;10510955;28;20072;-78
2022/11/23 01:03:24;;;;;;;0.00;0.00;;;;;;;1.96;100.00;99857.84;10492469;28;20051;-78
2022/11/23 01:08:24;;;;;;;0.00;0.00;;;;;;;1.97;100.00;99850.78;10510432;28;20024;-77
2022/11/23 01:13:24;;;;;;;0.00;0.00;;;;;;;1.97;100.00;99854.22;10511476;28;20379;-76
2022/11/23 01:18:25;;;;;;;0.00;0.00;;;;;;;1.97;100.00;99859.50;10510047;28;20068;-76
2022/11/23 01:23:28;;;;;;;0.00;0.00;;;;;;;1.95;100.00;99860.56;10510865;28;20395;-78
2022/11/23 01:28:29;;;;;;;0.00;0.00;;;;;;;1.98;100.00;99858.53;10510051;28;20027;-78
2022/11/23 01:33:29;;;;;;;0.00;0.00;;;;;;;2.00;100.00;99858.41;10510744;28;20042;-78
2022/11/23 01:38:29;;;;;;;0.00;0.00;;;;;;;2.05;100.00;99864.13;10510292;28;20032;-78
2022/11/23 01:43:30;;;;;;;0.00;0.00;;;;;;;2.12;100.00;99864.44;10510006;28;20047;-78
2022/11/23 01:48:39;;;;;;;0.00;0.00;;;;;;;2.16;100.00;99864.06;10502453;28;20037;-77
2022/11/23 01:53:40;;;;;;;0.00;0.00;;;;;;;2.22;100.00;99873.22;10502217;28;20052;-77
2022/11/23 01:58:45;;;;;;;0.00;0.00;;;;;;;2.27;100.00;99876.31;10500861;28;20025;-78
2022/11/23 02:03:47;;;;;;;0.00;0.00;;;;;;;2.30;100.00;99878.66;10500958;28;20060;-77
2022/11/23 02:08:48;;;;;;;0.00;0.00;;;;;;;2.33;100.00;99881.03;10500508;28;20539;-76
2022/11/23 02:13:50;;;;;;;0.00;0.00;;;;;;;2.35;100.00;99878.25;10501728;28;20024;-77
2022/11/23 02:18:51;;;;;;;0.00;0.00;;;;;;;2.36;100.00;99865.00;10500138;28;20032;-78
2022/11/23 02:24:13;;;;;;;0.00;0.00;;;;;;;2.37;100.00;99864.03;10500183;28;20537;-77
2022/11/23 02:29:23;;;;;;;0.00;0.00;;;;;;;2.39;100.00;99859.50;10500848;28;20028;-78
2022/11/23 02:34:23;;;;;;;0.00;0.00;;;;;;;2.42;100.00;99861.84;10500079;28;20085;-77
2022/11/23 02:39:36;;;;;;;0.00;0.00;;;;;;;2.45;100.00;99861.59;10500499;28;20040;-77
2022/11/23 02:45:07;;;;;;;0.00;0.00;;;;;;;2.47;100.00;99853.56;10500997;28;20025;-78
2022/11/23 02:50:07;;;;;;;0.00;0.00;;;;;;;2.48;100.00;99852.63;10475363;22;20140;-76
2022/11/23 02:55:08;;;;;;;0.00;0.00;;;;;;;2.46;100.00;99851.91;10415164;28;20420;-77
2022/11/23 03:00:09;;;;;;;0.00;0.00;;;;;;;2.48;100.00;99857.88;10408320;28;20421;-77
2022/11/23 03:05:09;;;;;;;0.00;0.00;;;;;;;2.48;100.00;99855.25;10391078;28;20131;-77
2022/11/23 03:10:10;;;;;;;0.00;0.00;;;;;;;2.49;100.00;99855.09;10408223;28;20087;-76
2022/11/23 03:15:10;;;;;;;0.00;0.00;;;;;;;2.50;100.00;99855.91;10414972;28;20037;-75
2022/11/23 03:20:10;;;;;;;0.00;0.00;;;;;;;2.55;100.00;99855.53;10408011;28;20657;-76
2022/11/23 03:25:11;;;;;;;0.00;0.00;;;;;;;2.58;100.00;99855.28;10408822;28;20385;-76
2022/11/23 03:30:11;;;;;;;0.00;0.00;;;;;;;2.59;100.00;99860.41;10407478;28;20343;-76
2022/11/23 03:35:11;;;;;;;0.00;0.00;;;;;;;2.63;100.00;99863.63;10407686;28;20681;-77
2022/11/23 03:40:12;;;;;;;0.00;0.00;;;;;;;2.63;100.00;99877.59;10390013;28;20054;-77
2022/11/23 03:45:12;;;;;;;0.00;0.00;;;;;;;2.66;100.00;99866.81;10407963;28;20021;-77
2022/11/23 03:50:12;;;;;;;0.00;0.00;;;;;;;2.70;100.00;99876.06;10416492;28;20044;-77
2022/11/23 03:55:13;;;;;;;0.00;0.00;;;;;;;2.73;100.00;99867.09;10407245;28;20071;-76
2022/11/23 04:00:14;;;;;;;0.00;0.00;;;;;;;2.75;100.00;99874.88;10406951;28;20076;-77
2022/11/23 04:05:14;;;;;;;0.00;0.00;;;;;;;2.77;100.00;99870.31;10407927;28;20120;-77
2022/11/23 04:10:16;;;;;;;0.00;0.00;;;;;;;2.78;100.00;99874.59;10406575;28;20496;-77
2022/11/23 04:15:17;;;;;;;0.00;0.00;;;;;;;2.76;100.00;99877.34;10383518;28;20260;-77
2022/11/23 04:20:18;;;;;;;0.00;0.00;;;;;;;2.74;100.00;99867.97;10410957;28;20464;-77
2022/11/23 04:25:18;;;;;;;0.00;0.00;;;;;;;2.78;100.00;99871.97;10412423;28;20029;-77
2022/11/23 04:30:19;;;;;;;0.00;0.00;;;;;;;2.78;100.00;99871.97;10407567;28;20109;-77
2022/11/23 04:35:21;;;;;;;0.00;0.00;;;;;;;2.76;100.00;99871.25;10408850;28;20025;-77
2022/11/23 04:40:21;;;;;;;0.00;0.00;;;;;;;2.78;100.00;99864.09;10409578;28;20064;-78
2022/11/23 04:45:21;;;;;;;0.00;0.00;;;;;;;2.77;100.00;99867.69;10410008;28;20171;-77
2022/11/23 04:50:22;;;;;;;0.00;0.00;;;;;;;2.76;100.00;99866.00;10401236;28;20039;-79
2022/11/23 04:55:22;;;;;;;0.00;0.00;;;;;;;2.74;100.00;99862.69;10402338;28;20388;-80
2022/11/23 05:00:22;;;;;;;0.00;0.00;;;;;;;2.78;100.00;99871.97;10421515;28;20037;-80
2022/11/23 05:05:23;;;;;;;0.00;0.00;;;;;;;2.78;100.00;99871.97;10392525;28;20264;-80
2022/11/23 05:10:23;;;;;;;0.00;0.00;;;;;;;2.79;100.00;99865.75;10419390;28;20344;-80
2022/11/23 05:15:24;;;;;;;0.00;0.00;;;;;;;2.83;100.00;99861.91;10400938;28;20029;-79
2022/11/23 05:20:24;;;;;;;0.00;0.00;;;;;;;2.84;100.00;99858.28;10411624;28;20072;-79
2022/11/23 05:25:25;;;;;;;0.00;0.00;;;;;;;2.87;100.00;99858.03;10411658;28;20280;-79
2022/11/23 05:30:26;;;;;;;0.00;0.00;;;;;;;2.91;100.00;99868.16;10405208;28;20029;-79
2022/11/23 05:35:26;;;;;;;0.00;0.00;;;;;;;2.93;100.00;99868.00;10403851;28;20184;-79
2022/11/23 05:40:27;;;;;;;0.00;0.00;;;;;;;2.95;100.00;99866.09;10423942;28;20041;-80
2022/11/23 05:45:27;;;;;;;0.00;0.00;;;;;;;2.95;100.00;99866.09;10402528;28;20124;-79
2022/11/23 05:50:28;;;;;;;0.00;0.00;;;;;;;2.99;100.00;99866.63;10401632;28;20033;-79
2022/11/23 05:55:28;;;;;;;0.00;0.00;;;;;;;3.01;100.00;99860.28;10400565;28;20116;-79
2022/11/23 06:00:29;;;;;;;0.00;0.00;;;;;;;3.06;100.00;99865.16;10400403;28;20041;-80
2022/11/23 06:05:29;;;;;;;0.00;0.00;;;;;;;3.08;100.00;99856.13;10422429;28;20041;-79
2022/11/23 06:10:30;;;;;;;0.00;0.00;;;;;;;3.14;100.00;99866.16;10425765;28;20070;-79
2022/11/23 06:15:30;;;;;;;0.00;0.00;;;;;;;3.21;100.00;99863.81;10416185;28;20038;-80
2022/11/23 06:20:30;;;;;;;0.00;0.00;;;;;;;3.27;100.00;99872.97;10399321;28;20450;-79
2022/11/23 06:25:30;;;;;;;0.00;0.00;;;;;;;3.33;100.00;99869.78;10403370;28;20333;-79
2022/11/23 06:30:31;;;;;;;0.00;0.00;;;;;;;3.37;100.00;99871.16;10412696;28;20484;-79
2022/11/23 06:35:31;;;;;;;0.00;0.00;;;;;;;3.43;100.00;99891.66;10416197;28;20276;-79
2022/11/23 06:40:32;;;;;;;0.00;0.00;;;;;;;3.47;100.00;99887.00;10417386;28;20364;-79
2022/11/23 06:45:32;;;;;;;0.00;0.00;;;;;;;3.48;100.00;99891.28;10399308;28;20320;-79
2022/11/23 06:50:32;;;;;;;0.00;0.00;;;;;;;3.51;100.00;99896.25;10401477;28;20056;-79
2022/11/23 06:55:33;;;;;;;0.00;0.00;;;;;;;3.52;100.00;99900.56;10416561;28;20304;-79
2022/11/23 07:00:33;;;;;;;0.00;0.00;;;;;;;3.54;100.00;99899.44;10421755;28;20044;-79
2022/11/23 07:05:33;;;;;;;0.00;0.00;;;;;;;3.57;100.00;99904.44;10416391;28;20048;-78
2022/11/23 07:10:34;;;;;;;0.00;0.00;;;;;;;3.61;100.00;99907.66;10395672;28;20053;-78
2022/11/23 07:15:36;;;;;;;0.00;0.00;;;;;;;3.59;100.00;99910.41;10395161;28;20694;-78
2022/11/23 07:20:37;;;;;;;0.00;0.00;;;;;;;3.63;100.00;99919.69;10420230;28;20150;-78
2022/11/23 07:25:37;;;;;;;0.00;0.00;;;;;;;3.68;100.00;99921.09;10419741;28;20041;-78
2022/11/23 07:30:38;;;;;;;0.00;0.00;;;;;;;3.72;100.00;99922.47;10396239;28;20036;-78
2022/11/23 07:35:39;;;;;;;0.00;0.00;;;;;;;3.77;100.00;99931.63;10396456;28;20292;-77
2022/11/23 07:40:40;;;;;;;0.00;0.00;;;;;;;3.80;100.00;99922.63;10396581;28;20033;-78
2022/11/23 07:45:40;;;;;;;0.00;0.00;;;;;;;3.87;100.00;99923.75;10397944;28;20105;-78
2022/11/23 07:50:40;;;;;;;0.00;0.00;;;;;;;3.85;100.00;99923.06;10412366;28;20128;-78
2022/11/23 07:55:40;;;;;;;0.00;0.00;;;;;;;3.98;100.00;99934.13;10416362;28;20025;-77
2022/11/23 08:00:41;;;;;;;0.00;0.00;;;;;;;4.02;100.00;99940.81;10423331;28;20051;-78
2022/11/23 08:05:41;;;;;;;0.00;0.00;;;;;;;4.07;100.00;99940.38;10415889;28;20256;-78
2022/11/23 08:10:42;;;;;;;0.00;0.00;;;;;;;4.13;100.00;99952.16;10411234;28;20040;-77
2022/11/23 08:15:42;;;;;;;0.00;0.00;;;;;;;4.13;100.00;99949.53;10393912;28;20087;-78
2022/11/23 08:20:42;;;;;;;0.00;0.00;;;;;;;4.16;100.00;99943.97;10400359;28;20056;-78
2022/11/23 08:25:42;;;;;;;0.00;0.00;;;;;;;4.18;100.00;99955.22;10418529;28;20160;-78
2022/11/23 08:30:43;;;;;;;0.00;0.00;;;;;;;4.20;100.00;99953.28;10400430;28;20038;-78
2022/11/23 08:35:43;;;;;;;0.00;0.00;;;;;;;4.24;100.00;99962.56;10427193;28;20494;-78
2022/11/23 08:40:43;;;;;;;0.00;0.00;;;;;;;4.34;100.00;99950.25;10400133;28;20035;-78
2022/11/23 08:45:44;;;;;;;0.00;0.00;;;;;;;4.44;100.00;99951.03;10431350;28;20028;-78
2022/11/23 08:50:44;;;;;;;0.00;0.00;;;;;;;4.52;100.00;99956.44;10434780;28;20044;-78
2022/11/23 08:55:44;;;;;;;0.00;0.00;;;;;;;4.61;100.00;99959.22;10403482;28;20035;-78
2022/11/23 09:00:45;;;;;;;0.00;0.00;;;;;;;4.72;100.00;99964.34;10401696;28;20056;-78
2022/11/23 09:05:45;;;;;;;0.00;0.00;;;;;;;4.77;100.00;99962.09;10423263;28;20410;-78
2022/11/23 09:10:45;;;;;;;0.00;0.00;;;;;;;4.80;100.00;99968.88;10431198;28;20033;-78
2022/11/23 09:15:46;;;;;;;0.00;0.00;;;;;;;4.79;100.00;99970.69;10435999;28;20179;-78
2022/11/23 09:20:46;;;;;;;0.00;0.00;;;;;;;4.86;100.00;99971.78;10412480;28;20048;-78
2022/11/23 09:25:48;;;;;;;0.00;0.00;;;;;;;4.94;100.00;99977.16;10425460;28;20350;-78
2022/11/23 09:30:49;;;;;;;0.00;0.00;;;;;;;5.09;100.00;99977.56;10456080;28;20039;-78
2022/11/23 09:36:00;;;;;;;0.00;0.00;;;;;;;5.33;100.00;99982.31;10433406;28;20025;-78
2022/11/23 09:41:19;;;;;;;0.00;0.00;;;;;;;5.50;100.00;99986.00;10413734;28;20669;-78
2022/11/23 09:46:39;;;;;;;0.10;0.10;;;;;;;5.57;100.00;99981.78;10423125;28;20039;-78
2022/11/23 09:51:41;;;;;;;0.00;0.00;;;;;;;5.66;100.00;99985.34;10415114;28;20465;-78
2022/11/23 09:56:45;;;;;;;0.00;0.00;;;;;;;5.74;100.00;99982.78;10415984;28;20027;-78
2022/11/23 10:01:45;;;;;;;0.00;0.00;;;;;;;5.78;100.00;99986.78;10414745;28;20130;-78
2022/11/23 10:06:52;;;;;;;0.00;0.00;;;;;;;5.87;100.00;99979.78;10415782;28;20076;-78
2022/11/23 10:12:11;;;;;;;0.00;0.00;;;;;;;6.02;100.00;99988.06;10415273;28;20060;-78
2022/11/23 10:17:33;;;;;;;0.00;0.00;;;;;;;6.22;100.00;99992.22;10397492;28;20025;-78
2022/11/23 10:22:57;;;;;;;0.00;0.00;;;;;;;6.50;100.00;99984.19;10419100;28;20079;-78
2022/11/23 10:28:01;;;;;;;0.10;0.10;;;;;;;6.69;100.00;99985.81;10412604;28;20037;-78
2022/11/23 10:33:21;;;;;;;0.00;0.00;;;;;;;6.75;100.00;99994.00;10448442;28;20476;-78
2022/11/23 10:38:25;;;;;;;0.10;0.10;;;;;;;6.82;100.00;99993.38;10437257;28;20481;-78
2022/11/23 10:43:31;;;;;;;0.10;0.10;;;;;;;6.83;100.00;99990.53;10412520;28;20527;-78
2022/11/23 10:48:35;;;;;;;0.00;0.00;;;;;;;6.85;100.00;99999.16;10411413;28;20273;-78
2022/11/23 10:53:37;;;;;;;0.00;0.00;;;;;;;6.83;100.00;100001.13;10413644;28;20512;-78
2022/11/23 10:58:43;;;;;;;0.08;0.08;;;;;;;6.85;100.00;100001.81;10411607;28;20037;-78
2022/11/23 11:03:44;;;;;;;0.10;0.10;;;;;;;6.89;100.00;99997.03;10401025;28;20567;-78
2022/11/23 11:08:56;;;;;;;0.00;0.00;;;;;;;6.95;100.00;99984.03;10431371;28;20067;-77
2022/11/23 11:14:02;;;;;;;0.10;0.10;;;;;;;7.05;100.00;99994.50;10428839;28;20122;-78
2022/11/23 11:19:27;;;;;;;0.10;0.10;;;;;;;7.11;100.00;99985.94;10410258;28;20563;-78
2022/11/23 11:24:32;;;;;;;0.00;0.00;;;;;;;7.14;100.00;99987.44;10435089;28;20078;-78
2022/11/23 11:29:38;;;;;;;0.10;0.10;;;;;;;7.16;100.00;99985.47;10434218;28;20034;-77
2022/11/23 11:34:47;;;;;;;0.10;0.10;;;;;;;7.20;100.00;99989.44;10451576;28;20060;-78
2022/11/23 11:39:52;;;;;;;0.00;0.00;;;;;;;7.25;100.00;99988.00;10448835;28;20440;-77
2022/11/23 11:44:55;;;;;;;0.00;0.00;;;;;;;7.30;100.00;99987.53;10412201;28;20106;-78
2022/11/23 11:50:00;;;;;;;0.10;0.10;;;;;;;7.39;100.00;99986.56;10411574;28;20036;-78
2022/11/23 11:55:22;;;;;;;0.10;0.10;;;;;;;7.46;100.00;99992.06;10409781;28;20036;-77
2022/11/23 12:00:22;;;;;;;0.10;0.10;;;;;;;7.46;100.00;99986.75;10415370;28;20043;-77
2022/11/23 12:05:25;;;;;;;0.10;0.10;;;;;;;7.49;100.00;99983.78;10420000;28;20113;-78
2022/11/23 12:10:35;;;;;;;0.10;0.10;;;;;;;7.46;100.00;99986.75;10418616;28;20387;-78
2022/11/23 12:15:45;;;;;;;0.00;0.00;;;;;;;7.49;100.00;99989.09;10423320;28;20515;-77
2022/11/23 12:20:53;;;;;;;0.10;0.10;;;;;;;7.55;100.00;99987.63;10414766;28;20492;-78
2022/11/23 12:26:19;;;;;;;0.05;0.05;;;;;;;7.64;100.00;99976.88;10403459;28;20030;-78
2022/11/23 12:31:42;;;;;;;0.05;0.05;;;;;;;7.74;100.00;99979.41;10393180;28;20141;-77
2022/11/23 12:36:58;;;;;;;0.00;0.00;;;;;;;7.79;100.00;99974.44;10442556;28;20411;-78
2022/11/23 12:41:59;;;;;;;0.10;0.10;;;;;;;7.84;100.00;99979.25;10458672;28;20045;-77
2022/11/23 12:47:28;;;;;;;0.10;0.10;;;;;;;7.87;100.00;99978.94;10428747;28;21611;-77
2022/11/23 12:53:06;;;;;;;0.00;0.00;;;;;;;7.90;100.00;99984.72;10393666;28;20405;-76
2022/11/23 12:58:24;;;;;;;0.00;0.00;;;;;;;7.98;100.00;99981.28;10415089;28;20502;-77
2022/11/23 13:04:00;;;;;;;0.00;0.00;;;;;;;8.06;100.00;99988.44;10396923;28;20067;-77
2022/11/23 13:09:22;;;;;;;0.00;0.00;;;;;;;8.16;100.00;99987.28;10414674;28;20049;-77
2022/11/23 13:14:29;;;;;;;0.10;0.10;;;;;;;8.22;100.00;99985.78;10418168;28;20108;-77
2022/11/23 13:19:56;;;;;;;0.00;0.00;;;;;;;8.29;100.00;99989.44;10414483;28;20037;-77
2022/11/23 13:25:11;;;;;;;0.08;0.08;;;;;;;8.33;100.00;99974.03;10399980;28;20029;-77
2022/11/23 13:30:21;;;;;;;0.10;0.10;;;;;;;8.26;100.00;99979.16;10403069;28;20489;-76
2022/11/23 13:35:21;;;;;;;0.10;0.10;;;;;;;8.21;100.00;99981.47;10414133;28;20476;-77
2022/11/23 13:40:25;;;;;;;0.08;0.08;;;;;;;8.18;100.00;99973.84;10412864;28;20116;-77
2022/11/23 13:45:26;;;;;;;0.10;0.10;;;;;;;8.05;100.00;99971.66;10412417;28;20044;-77
2022/11/23 13:50:26;;;;;;;0.10;0.10;;;;;;;7.97;100.00;99968.16;10402160;28;20521;-77
2022/11/23 13:55:33;;;;;;;0.00;0.00;;;;;;;7.91;100.00;99967.00;10394633;28;20033;-77
2022/11/23 14:00:50;;;;;;;0.05;0.05;;;;;;;7.93;100.00;99965.03;10393755;28;20030;-77
2022/11/23 14:05:58;;;;;;;0.05;0.05;;;;;;;7.94;100.00;99964.03;10411652;28;20124;-76
2022/11/23 14:11:00;;;;;;;0.10;0.10;;;;;;;7.94;100.00;99961.38;10418743;28;20116;-76
2022/11/23 14:16:02;;;;;;;0.10;0.10;;;;;;;7.93;100.00;99963.19;10412770;28;20060;-76
2022/11/23 14:21:24;;;;;;;0.00;0.00;;;;;;;7.90;100.00;99955.56;10422459;28;20029;-77
2022/11/23 14:26:50;;;;;;;0.03;0.03;;;;;;;7.87;100.00;99955.06;10435475;28;20029;-76
2022/11/23 14:32:07;;;;;;;0.10;0.10;;;;;;;7.80;100.00;99949.59;10410743;28;20124;-76
2022/11/23 14:37:35;;;;;;;0.10;0.10;;;;;;;7.73;100.00;99943.25;10416641;28;20033;-76
2022/11/23 14:42:44;;;;;;;0.00;0.00;;;;;;;7.61;100.00;99948.03;10409257;28;20083;-76
2022/11/23 14:47:45;;;;;;;0.10;0.10;;;;;;;7.47;100.00;99949.47;10389611;28;20064;-76
2022/11/23 14:52:45;;;;;;;0.03;0.03;;;;;;;7.32;100.00;99947.63;10396344;22;20112;-91
2022/11/23 14:57:47;;;;;;;0.00;0.00;;;;;;;7.28;100.00;99951.59;10392439;28;20026;-91
2022/11/23 15:02:48;;;;;;;0.10;0.10;;;;;;;7.13;100.00;99954.81;10378655;28;20021;-89
2022/11/23 15:08:08;;;;;;;0.00;0.00;;;;;;;6.82;100.00;99941.25;10378756;28;20092;-90
2022/11/23 15:13:20;;;;;;;0.10;0.10;;;;;;;6.57;100.00;99942.91;10392481;28;20124;-89
2022/11/23 15:18:39;;;;;;;0.00;0.00;;;;;;;6.35;100.00;99938.94;10386499;28;20056;-89
2022/11/23 15:23:39;;;;;;;0.10;0.10;;;;;;;6.35;100.00;99965.41;10382529;28;20037;-89
2022/11/23 15:28:39;;;;;;;0.00;0.00;;;;;;;6.16;100.00;99965.56;10380481;28;20033;-89
2022/11/23 15:33:49;;;;;;;0.10;0.10;;;;;;;6.10;100.00;99977.56;10377158;28;20115;-89
2022/11/23 15:38:51;;;;;;;0.08;0.08;;;;;;;5.94;100.00;99970.31;10376626;28;20316;-89
2022/11/23 15:43:56;;;;;;;0.00;0.00;;;;;;;5.99;100.00;99989.22;10376429;28;20501;-88
2022/11/23 15:48:57;;;;;;;0.00;0.00;;;;;;;5.82;100.00;99988.19;10390688;28;20057;-90
2022/11/23 15:53:59;;;;;;;0.00;0.00;;;;;;;5.86;100.00;100007.19;10380378;28;20457;-89
2022/11/23 15:59:03;;;;;;;0.03;0.03;;;;;;;5.73;100.00;100002.28;10375784;28;20036;-91
2022/11/23 16:04:03;;;;;;;0.10;0.10;;;;;;;5.68;100.00;99994.78;10376593;28;20045;-87
2022/11/23 16:09:35;;;;;;;0.05;0.05;;;;;;;5.64;100.00;100005.78;10382964;28;20033;-86
2022/11/23 16:14:36;;;;;;;0.00;0.00;;;;;;;5.54;100.00;100015.59;10402474;28;20042;-86
2022/11/23 16:19:36;;;;;;;0.00;0.00;;;;;;;5.51;100.00;100015.88;10385457;28;20056;-87
2022/11/23 16:24:37;;;;;;;0.00;0.00;;;;;;;5.59;100.00;100024.75;10385342;28;20497;-87
2022/11/23 16:29:38;;;;;;;0.00;0.00;;;;;;;5.67;100.00;100035.41;10387350;28;20030;-87
2022/11/23 16:34:39;;;;;;;0.00;0.00;;;;;;;5.78;100.00;100029.06;10385013;28;20449;-86
2022/11/23 16:39:39;;;;;;;0.03;0.03;;;;;;;5.82;100.00;100016.41;10383069;28;20394;-87
2022/11/23 16:44:41;;;;;;;0.10;0.10;;;;;;;5.79;100.00;100009.63;10391591;28;20037;-87
2022/11/23 16:49:41;;;;;;;0.10;0.10;;;;;;;5.67;100.00;99997.56;10393379;28;20037;-87
2022/11/23 16:54:41;;;;;;;0.05;0.05;;;;;;;5.54;100.00;99989.16;10427407;28;20033;-87
2022/11/23 16:59:41;;;;;;;0.00;0.00;;;;;;;5.37;100.00;99990.78;10407073;28;20133;-88
2022/11/23 17:04:42;;;;;;;0.00;0.00;;;;;;;5.29;100.00;99999.41;10407542;28;20113;-87
2022/11/23 17:09:43;;;;;;;0.00;0.00;;;;;;;5.18;100.00;100003.09;10406917;28;20294;-89
2022/11/23 17:14:48;;;;;;;0.00;0.00;;;;;;;5.17;100.00;100017.25;10402848;28;20036;-89
2022/11/23 17:19:49;;;;;;;0.00;0.00;;;;;;;5.13;100.00;100009.78;10399785;28;20494;-89
2022/11/23 17:24:52;;;;;;;0.00;0.00;;;;;;;5.13;100.00;100021.16;10403345;28;20067;-89
2022/11/23 17:29:58;;;;;;;0.00;0.00;;;;;;;5.13;100.00;100020.34;10425927;28;20029;-87
2022/11/23 17:34:58;;;;;;;0.00;0.00;;;;;;;5.10;100.00;100033.81;10424934;28;20285;-87
2022/11/23 17:39:59;;;;;;;0.10;0.10;;;;;;;5.04;100.00;100022.03;10410544;28;20030;-88
2022/11/23 17:44:59;;;;;;;0.10;0.10;;;;;;;5.08;100.00;100044.50;10408796;28;20030;-87
2022/11/23 17:49:59;;;;;;;0.00;0.00;;;;;;;5.12;100.00;100067.03;10430358;28;20044;-87
2022/11/23 17:55:00;;;;;;;0.10;0.10;;;;;;;5.08;100.00;100070.91;10413942;28;20035;-87
2022/11/23 18:00:00;;;;;;;0.00;0.00;;;;;;;5.02;100.00;100066.19;10405351;28;20034;-87
2022/11/23 18:05:00;;;;;;;0.00;0.00;;;;;;;4.92;100.00;100087.34;10421110;28;20120;-87
2022/11/23 18:10:01;;;;;;;0.00;0.00;;;;;;;4.84;100.00;100083.72;10402559;28;20063;-88
2022/11/23 18:15:01;;;;;;;0.00;0.00;;;;;;;4.81;100.00;100099.84;10398657;28;20551;-87
2022/11/23 18:20:02;;;;;;;0.00;0.00;;;;;;;4.73;100.00;100104.00;10416553;28;20289;-89
2022/11/23 18:25:03;;;;;;;0.10;0.10;;;;;;;4.62;100.00;100095.38;10398734;28;20053;-88
2022/11/23 18:30:04;;;;;;;0.00;0.00;;;;;;;4.56;100.00;100102.06;10395729;28;20052;-89
2022/11/23 18:35:05;;;;;;;0.00;0.00;;;;;;;4.47;100.00;100111.63;10396858;28;20034;-88
2022/11/23 18:40:06;;;;;;;0.00;0.00;;;;;;;4.36;100.00;100111.75;10399111;28;20053;-89
2022/11/23 18:45:07;;;;;;;0.10;0.10;;;;;;;4.27;100.00;100118.66;10416290;28;20056;-89
2022/11/23 18:50:08;;;;;;;0.08;0.08;;;;;;;4.15;100.00;100118.94;10431218;28;20063;-88
2022/11/23 18:55:08;;;;;;;0.00;0.00;;;;;;;4.01;100.00;100115.69;10409259;28;20021;-88
2022/11/23 19:00:11;;;;;;;0.00;0.00;;;;;;;3.92;100.00;100102.50;10418385;28;20025;-87
2022/11/23 19:05:11;;;;;;;0.00;0.00;;;;;;;3.88;100.00;100125.66;10388214;28;20094;-88
2022/11/23 19:10:12;;;;;;;0.00;0.00;;;;;;;3.79;100.00;100121.19;10387800;28;20049;-87
2022/11/23 19:15:15;;;;;;;0.00;0.00;;;;;;;3.66;100.00;100120.56;10394222;28;20021;-87
2022/11/23 19:20:19;;;;;;;0.00;0.00;;;;;;;3.58;100.00;100131.75;10389208;28;20030;-88
2022/11/23 19:25:19;;;;;;;0.00;0.00;;;;;;;3.53;100.00;100124.25;10410028;28;20026;-88
2022/11/23 19:30:19;;;;;;;0.00;0.00;;;;;;;3.53;100.00;100126.06;10384407;28;20394;-87
2022/11/23 19:35:20;;;;;;;0.00;0.00;;;;;;;3.48;100.00;100123.78;10383870;28;20030;-87
2022/11/23 19:40:20;;;;;;;0.00;0.00;;;;;;;3.45;100.00;100124.06;10405919;28;20061;-87
2022/11/23 19:45:20;;;;;;;0.00;0.00;;;;;;;3.43;100.00;100122.53;10387047;28;20265;-87
2022/11/23 19:50:20;;;;;;;0.00;0.00;;;;;;;3.43;100.00;100133.88;10405244;28;20071;-88
2022/11/23 19:55:21;;;;;;;0.00;0.00;;;;;;;3.43;100.00;100135.69;10406210;28;20029;-89
2022/11/23 20:00:22;;;;;;;0.00;0.00;;;;;;;3.47;100.00;100137.94;10406152;28;20042;-88
2022/11/23 20:05:22;;;;;;;0.00;0.00;;;;;;;3.51;100.00;100130.59;10385940;28;20036;-88
2022/11/23 20:10:23;;;;;;;0.00;0.00;;;;;;;3.48;100.00;100141.41;10383753;28;20026;-88
2022/11/23 20:15:23;;;;;;;0.00;0.00;;;;;;;3.43;100.00;100139.16;10390812;28;20025;-88
2022/11/23 20:20:23;;;;;;;0.00;0.00;;;;;;;3.47;100.00;100145.84;10408783;28;20033;-87
2022/11/23 20:25:24;;;;;;;0.00;0.00;;;;;;;3.64;100.00;100144.41;10391463;28;20441;-88
2022/11/23 20:30:24;;;;;;;0.00;0.00;;;;;;;3.79;100.00;100144.88;10392469;28;20399;-87
2022/11/23 20:35:24;;;;;;;0.00;0.00;;;;;;;3.89;100.00;100147.56;10391681;28;20033;-88
2022/11/23 20:40:25;;;;;;;0.00;0.00;;;;;;;3.98;100.00;100160.75;10392392;28;20068;-87
2022/11/23 20:45:25;;;;;;;0.00;0.00;;;;;;;4.01;100.00;100154.38;10398008;28;20525;-87
2022/11/23 20:50:26;;;;;;;0.00;0.00;;;;;;;4.18;100.00;100163.47;10391158;28;20128;-88
2022/11/23 20:55:27;;;;;;;0.00;0.00;;;;;;;4.28;100.00;100170.44;10408054;22;20054;-87
2022/11/23 21:00:27;;;;;;;0.00;0.00;;;;;;;4.38;100.00;100167.81;10404460;28;20136;-87
2022/11/23 21:05:27;;;;;;;0.00;0.00;;;;;;;4.48;100.00;100168.69;10390611;28;20095;-87
2022/11/23 21:15:47;;;;;;;0.00;0.00;;;;;;;4.60;100.00;100190.50;10408872;28;20022;-87
2022/11/23 21:20:47;;;;;;;0.00;0.00;;;;;;;4.62;100.00;100198.25;10390216;28;20057;-88
2022/11/23 21:25:47;;;;;;;0.00;0.00;;;;;;;4.65;100.00;100200.63;10408662;28;20037;-87
2022/11/23 21:30:48;;;;;;;0.00;0.00;;;;;;;4.63;100.00;100192.03;10388204;28;20473;-87
2022/11/23 21:35:48;;;;;;;0.00;0.00;;;;;;;4.63;100.00;100187.59;10414578;28;20061;-93
2022/11/23 21:40:55;;;;;;;0.00;0.00;;;;;;;4.68;100.00;100200.34;10383970;28;20041;-92
2022/11/23 21:46:07;;;;;;;0.00;0.00;;;;;;;4.71;100.00;100211.50;10370837;28;20172;-91
2022/11/23 21:51:15;;;;;;;0.00;0.00;;;;;;;4.70;100.00;100207.16;10384907;28;20561;-92
2022/11/23 21:56:16;;;;;;;0.00;0.00;;;;;;;4.72;100.00;100210.50;10372136;28;20397;-93
2022/11/23 22:01:19;;;;;;;0.00;0.00;;;;;;;4.71;100.00;100211.50;10389153;28;20072;-92
2022/11/23 22:06:20;;;;;;;0.00;0.00;;;;;;;4.74;100.00;100203.31;10384325;28;20033;-92
2022/11/23 22:11:23;;;;;;;0.00;0.00;;;;;;;4.80;100.00;100204.56;10397811;28;20632;-92
2022/11/23 22:16:28;;;;;;;0.00;0.00;;;;;;;4.90;100.00;100218.59;10408057;28;20485;-92
2022/11/23 22:21:32;;;;;;;0.00;0.00;;;;;;;4.91;100.00;100228.16;10371085;28;20391;-90
2022/11/23 22:26:33;;;;;;;0.00;0.00;;;;;;;4.92;100.00;100223.75;10378918;28;20037;-91
2022/11/23 22:31:34;;;;;;;0.00;0.00;;;;;;;4.95;100.00;100234.84;10404233;28;20029;-91
2022/11/23 22:36:37;;;;;;;0.00;0.00;;;;;;;4.94;100.00;100238.44;10367154;28;20125;-92
2022/11/23 22:41:37;;;;;;;0.00;0.00;;;;;;;4.86;100.00;100226.91;10388582;28;20040;-91
2022/11/23 22:46:38;;;;;;;0.10;0.10;;;;;;;4.88;100.00;100241.63;10405553;28;20500;-91
2022/11/23 22:51:40;;;;;;;0.00;0.00;;;;;;;4.93;100.00;100244.69;10381132;28;20044;-92
2022/11/23 22:56:40;;;;;;;0.00;0.00;;;;;;;4.96;100.00;100252.34;10372877;28;20036;-91
2022/11/23 23:01:40;;;;;;;0.00;0.00;;;;;;;5.01;100.00;100270.41;10367449;28;20026;-92
2022/11/23 23:06:41;;;;;;;0.00;0.00;;;;;;;5.01;100.00;100262.50;10387444;28;20256;-93
2022/11/23 23:11:41;;;;;;;0.00;0.00;;;;;;;4.96;100.00;100252.34;10376706;28;20351;-91
2022/11/23 23:16:42;;;;;;;0.00;0.00;;;;;;;5.02;100.00;100258.06;10388319;28;20060;-92
2022/11/23 23:21:43;;;;;;;0.00;0.00;;;;;;;5.06;100.00;100264.72;10391684;28;20037;-91
2022/11/23 23:26:43;;;;;;;0.00;0.00;;;;;;;5.01;100.00;100269.59;10430650;28;20068;-91
2022/11/23 23:31:43;;;;;;;0.00;0.00;;;;;;;5.01;100.00;100275.69;10391327;28;20038;-92